Terminal Aerodrome Forecast
Issued by NWS Twin Cities, MN

Home | Current Version | Previous Version | Graphics & Text | Print | Product List | Glossary On
Versions: 1 2 3 4 5 6 7 8 9 10 11 12 13 14 15 16 17 18 19 20 21 22 23 24 25 26 27 28
655
FTUS43 KMPX 300255 AAA
TAFMSP
TAF AMD
KMSP 300255Z 3003/0106 17008KT P6SM -RA OVC015
     FM300700 20004KT 5SM -RA BR BKN007 OVC012
     FM300900 24004KT 2SM -RASN BR OVC005
     FM301300 31005KT 3SM -RASN BR OVC007
     FM302000 34007KT 5SM -RA BR OVC012=

USA.gov is the U.S. government's official web portal to all federal, state and local government web resources and services.